Jamie Marie — WDE7178 — position and weather

sailwx.info

Track history (hours):
 
Tides and Currents Weather Stations Pressure Air Temp Water Temp Dewpoint Dewpoint Depression Visibility Wind Speed Wind Dir Waves Ship Positions

Jamie Marie

Owner: Jamie Marie, Inc., Aberdeen, WA. More information available from US FCC via Universal Licensing System and Coast Guard Vessel Documentation Center.

Last reported at 2015-Sep-02 23:24 UTC. Time now 2015-Sep-02 23:53 UTC.
Position N 47°10' W 124°44'.

Length 30 m.

Type: Fishing. MMSI: 366425240.

Date/timePositionNaut miles runAvg speedWind from/ knotsBaromVisibWave heightAir tempDewpointWater temp
2015-Sep-02 23:24N 47°10' W 124°44'6 6.3
2015-Sep-02 22:28N 47°05' W 124°40'6 6.7
2015-Sep-02 21:33N 46°59' W 124°38'7 7.2
2015-Sep-02 20:33N 46°52' W 124°39'1 1.2
2015-Sep-02 19:33N 46°53' W 124°39'2 1.8
2015-Sep-02 18:33N 46°55' W 124°39'6 5.6
2015-Sep-02 17:33N 46°54' W 124°48'1 1.4
2015-Sep-02 16:33N 46°52' W 124°47'2 1.6
2015-Sep-02 15:29N 46°51' W 124°47'2 1.8
2015-Sep-02 14:33N 46°49' W 124°46'3 3.3
2015-Sep-02 13:33N 46°51' W 124°42'1 1.2
2015-Sep-02 12:33N 46°51' W 124°41'0 0.2
2015-Sep-02 11:33N 46°51' W 124°41'0 0.3
2015-Sep-02 10:33N 46°52' W 124°41'0 0.4
2015-Sep-02 09:33N 46°52' W 124°42'1 0.6
2015-Sep-02 08:33N 46°52' W 124°43'1 0.5
2015-Sep-02 07:33N 46°52' W 124°43'1 0.6
2015-Sep-02 06:33N 46°52' W 124°44'1 0.9
2015-Sep-02 05:33N 46°52' W 124°46'1 0.9
2015-Sep-02 04:33N 46°52' W 124°47'1 0.7
2015-Sep-02 03:33N 46°52' W 124°47'3 2.7
2015-Sep-02 02:33N 46°55' W 124°45'0 0.4
2015-Sep-02 01:33N 46°54' W 124°45'2 1.9
2015-Sep-02 00:33N 46°53' W 124°44'2 2.0
2015-Sep-01 23:33N 46°51' W 124°43'0 0.2
2015-Sep-01 22:33N 46°51' W 124°43'2 1.8
2015-Sep-01 21:33N 46°52' W 124°44'2 1.8
2015-Sep-01 20:33N 46°54' W 124°44'2 1.9
2015-Sep-01 19:33N 46°56' W 124°43'7 7.1
2015-Sep-01 18:33N 47°02' W 124°48'1 1.4
2015-Sep-01 17:33N 47°03' W 124°50'2 1.8
2015-Sep-01 16:33N 47°01' W 124°49'2 1.8
2015-Sep-01 15:33N 46°60' W 124°48'2 2.0
2015-Sep-01 14:33N 46°58' W 124°46'3 2.8
2015-Sep-01 13:33N 46°57' W 124°42'5 4.9
2015-Sep-01 12:33N 46°55' W 124°36'6 6.4
2015-Sep-01 11:33N 46°55' W 124°27'6 6.3
2015-Sep-01 10:33N 46°55' W 124°18'  
2015-Aug-29 08:17N 46°54' W 124°06'1 0.7
2015-Aug-29 06:32N 46°55' W 124°08'8 8.2
2015-Aug-29 05:33N 46°55' W 124°20'8 8.3
2015-Aug-29 04:33N 46°55' W 124°32'7 6.7
2015-Aug-29 03:30N 46°54' W 124°42'1 1.5
2015-Aug-29 02:33N 46°53' W 124°43'2 1.9
2015-Aug-29 01:33N 46°51' W 124°45'2 1.8
2015-Aug-29 00:32N 46°50' W 124°46'1 1.2
2015-Aug-28 23:33N 46°49' W 124°44'1 1.3
2015-Aug-28 22:33N 46°49' W 124°43'2 1.8
2015-Aug-28 21:33N 46°51' W 124°43'2 1.9
2015-Aug-28 20:33N 46°53' W 124°44'0 0.4
2015-Aug-28 19:33N 46°53' W 124°44'2 1.9
2015-Aug-28 18:33N 46°51' W 124°44'2 2.1
2015-Aug-28 17:33N 46°49' W 124°44'2 2.2
2015-Aug-28 16:33N 46°47' W 124°44'1 1.5
2015-Aug-28 15:33N 46°45' W 124°44'1 0.9
2015-Aug-28 14:33N 46°46' W 124°45'1 1.3
2015-Aug-28 13:32N 46°48' W 124°45'2 2.2
2015-Aug-28 12:33N 46°50' W 124°46'7 7.0
2015-Aug-28 11:33N 46°57' W 124°48'9 7.3
2015-Aug-28 10:20N 47°05' W 124°51'54 7.9
2015-Aug-28 03:33N 47°58' W 125°06'3 2.5
2015-Aug-28 02:33N 48°00' W 125°07'2 2.0
2015-Aug-28 01:33N 48°02' W 125°08'0 0.3
2015-Aug-28 00:33N 48°02' W 125°08'2 1.7
2015-Aug-27 23:33N 48°01' W 125°08'2 1.7
2015-Aug-27 22:33N 47°59' W 125°09'6 5.7
2015-Aug-27 21:33N 47°54' W 125°06'8 8.4
2015-Aug-27 20:33N 47°46' W 125°02'9 8.5
2015-Aug-27 19:32N 47°38' W 124°56'9 8.6
2015-Aug-27 18:33N 47°30' W 124°52'8 8.1
2015-Aug-27 17:33N 47°23' W 124°47'1 0.9
2015-Aug-27 16:33N 47°22' W 124°46'2 1.7
2015-Aug-27 15:33N 47°24' W 124°47'1 1.3
2015-Aug-27 14:34N 47°25' W 124°47'6 5.8
2015-Aug-27 13:33N 47°20' W 124°42'7 6.9
2015-Aug-27 12:33N 47°15' W 124°36'7 7.1
2015-Aug-27 11:33N 47°09' W 124°29'7 7.3
2015-Aug-27 10:33N 47°04' W 124°22'8 7.3
2015-Aug-27 09:28N 46°58' W 124°15'6 2.2
2015-Aug-27 06:33N 46°54' W 124°06'0 0.0
2015-Aug-27 05:19N 46°54' W 124°06'0 0.0
2015-Aug-27 04:12N 46°54' W 124°06'0 0.0
2015-Aug-27 03:33N 46°54' W 124°06'0 0.0
2015-Aug-27 02:33N 46°54' W 124°06'0 0.0
2015-Aug-27 01:14N 46°54' W 124°06'0 0.2
2015-Aug-27 00:04N 46°55' W 124°07'0 0.0
2015-Aug-26 18:27N 46°55' W 124°07'0 0.0
2015-Aug-26 17:27N 46°55' W 124°07'0 0.0
2015-Aug-26 16:33N 46°55' W 124°07'0 0.0
2015-Aug-26 14:19N 46°55' W 124°07'0 0.0
2015-Aug-26 13:33N 46°55' W 124°07'0 0.0
2015-Aug-26 12:33N 46°55' W 124°07'0 0.0
2015-Aug-26 11:33N 46°55' W 124°07'0 0.0
2015-Aug-26 10:26N 46°55' W 124°07'0 0.0
2015-Aug-26 09:33N 46°55' W 124°07'0 0.3
2015-Aug-26 08:27N 46°55' W 124°07'5 6.1
2015-Aug-26 07:33N 46°56' W 124°14'8 8.5
2015-Aug-26 06:33N 47°03' W 124°22'9 8.6
2015-Aug-26 05:33N 47°10' W 124°28'9 8.8
2015-Aug-26 04:33N 47°17' W 124°36'9 9.0
2015-Aug-26 03:33N 47°24' W 124°44'9 9.2
2015-Aug-26 02:33N 47°32' W 124°52'9 8.6
2015-Aug-26 01:33N 47°39' W 124°59'5 1.6
2015-Aug-25 22:32N 47°35' W 124°57'1 1.4
2015-Aug-25 21:33N 47°35' W 124°58'3 1.9
2015-Aug-25 20:11N 47°38' W 125°00'5 3.3
2015-Aug-25 18:33N 47°43' W 125°01'4 1.3
2015-Aug-25 15:17N 47°39' W 124°58'2 1.9
2015-Aug-25 14:17N 47°41' W 124°59'1 1.0
2015-Aug-25 13:29N 47°41' W 124°58'3 1.3
2015-Aug-25 11:15N 47°40' W 124°54'0 0.3
2015-Aug-25 10:33N 47°40' W 124°54'0 0.4
2015-Aug-25 09:28N 47°40' W 124°54'0 0.5
2015-Aug-25 08:29N 47°41' W 124°54'0 0.5
2015-Aug-25 07:33N 47°41' W 124°55'0 0.4
2015-Aug-25 06:32N 47°41' W 124°55'1 0.5
2015-Aug-25 05:33N 47°41' W 124°56'1 0.6
2015-Aug-25 04:33N 47°41' W 124°57'1 1.5
2015-Aug-25 03:32N 47°40' W 124°59'5 1.8
2015-Aug-25 00:31N 47°46' W 125°01'1 0.1
2015-Aug-24 10:28N 47°46' W 125°00'1 0.7
2015-Aug-24 09:26N 47°47' W 125°01'1 0.6
2015-Aug-24 08:05N 47°47' W 125°02'1 0.6
2015-Aug-24 06:13N 47°48' W 125°03'6 1.7
2015-Aug-24 02:30N 47°43' W 124°58'2 1.8
2015-Aug-24 01:32N 47°44' W 124°59'1 0.7
2015-Aug-24 00:33N 47°45' W 124°59'2 1.9
2015-Aug-23 23:33N 47°47' W 125°00'  
Track history (hours):
 
Tides and Currents Weather Stations Pressure Air Temp Water Temp Dewpoint Dewpoint Depression Visibility Wind Speed Wind Dir Waves Ship Positions

Jamie Marie

Owner: Jamie Marie, Inc., Aberdeen, WA. More information available from US FCC via Universal Licensing System and Coast Guard Vessel Documentation Center.

Last reported at 2015-Sep-02 23:24 UTC. Time now 2015-Sep-02 23:53 UTC.
Position N 47°10' W 124°44'.

Length 30 m.

Type: Fishing. MMSI: 366425240.

Date/timePositionNaut miles runAvg speedWind from/ knotsBaromVisibWave heightAir tempDewpointWater temp
2015-Sep-02 23:24N 47°10' W 124°44'6 6.3
2015-Sep-02 22:28N 47°05' W 124°40'6 6.7
2015-Sep-02 21:33N 46°59' W 124°38'7 7.2
2015-Sep-02 20:33N 46°52' W 124°39'1 1.2
2015-Sep-02 19:33N 46°53' W 124°39'2 1.8
2015-Sep-02 18:33N 46°55' W 124°39'6 5.6
2015-Sep-02 17:33N 46°54' W 124°48'1 1.4
2015-Sep-02 16:33N 46°52' W 124°47'2 1.6
2015-Sep-02 15:29N 46°51' W 124°47'2 1.8
2015-Sep-02 14:33N 46°49' W 124°46'3 3.3
2015-Sep-02 13:33N 46°51' W 124°42'1 1.2
2015-Sep-02 12:33N 46°51' W 124°41'0 0.2
2015-Sep-02 11:33N 46°51' W 124°41'0 0.3
2015-Sep-02 10:33N 46°52' W 124°41'0 0.4
2015-Sep-02 09:33N 46°52' W 124°42'1 0.6
2015-Sep-02 08:33N 46°52' W 124°43'1 0.5
2015-Sep-02 07:33N 46°52' W 124°43'1 0.6
2015-Sep-02 06:33N 46°52' W 124°44'1 0.9
2015-Sep-02 05:33N 46°52' W 124°46'1 0.9
2015-Sep-02 04:33N 46°52' W 124°47'1 0.7
2015-Sep-02 03:33N 46°52' W 124°47'3 2.7
2015-Sep-02 02:33N 46°55' W 124°45'0 0.4
2015-Sep-02 01:33N 46°54' W 124°45'2 1.9
2015-Sep-02 00:33N 46°53' W 124°44'2 2.0
2015-Sep-01 23:33N 46°51' W 124°43'0 0.2
2015-Sep-01 22:33N 46°51' W 124°43'2 1.8
2015-Sep-01 21:33N 46°52' W 124°44'2 1.8
2015-Sep-01 20:33N 46°54' W 124°44'2 1.9
2015-Sep-01 19:33N 46°56' W 124°43'7 7.1
2015-Sep-01 18:33N 47°02' W 124°48'1 1.4
2015-Sep-01 17:33N 47°03' W 124°50'2 1.8
2015-Sep-01 16:33N 47°01' W 124°49'2 1.8
2015-Sep-01 15:33N 46°60' W 124°48'2 2.0
2015-Sep-01 14:33N 46°58' W 124°46'3 2.8
2015-Sep-01 13:33N 46°57' W 124°42'5 4.9
2015-Sep-01 12:33N 46°55' W 124°36'6 6.4
2015-Sep-01 11:33N 46°55' W 124°27'6 6.3
2015-Sep-01 10:33N 46°55' W 124°18'  
2015-Aug-29 08:17N 46°54' W 124°06'1 0.7
2015-Aug-29 06:32N 46°55' W 124°08'8 8.2
2015-Aug-29 05:33N 46°55' W 124°20'8 8.3
2015-Aug-29 04:33N 46°55' W 124°32'7 6.7
2015-Aug-29 03:30N 46°54' W 124°42'1 1.5
2015-Aug-29 02:33N 46°53' W 124°43'2 1.9
2015-Aug-29 01:33N 46°51' W 124°45'2 1.8
2015-Aug-29 00:32N 46°50' W 124°46'1 1.2
2015-Aug-28 23:33N 46°49' W 124°44'1 1.3
2015-Aug-28 22:33N 46°49' W 124°43'2 1.8
2015-Aug-28 21:33N 46°51' W 124°43'2 1.9
2015-Aug-28 20:33N 46°53' W 124°44'0 0.4
2015-Aug-28 19:33N 46°53' W 124°44'2 1.9
2015-Aug-28 18:33N 46°51' W 124°44'2 2.1
2015-Aug-28 17:33N 46°49' W 124°44'2 2.2
2015-Aug-28 16:33N 46°47' W 124°44'1 1.5
2015-Aug-28 15:33N 46°45' W 124°44'1 0.9
2015-Aug-28 14:33N 46°46' W 124°45'1 1.3
2015-Aug-28 13:32N 46°48' W 124°45'2 2.2
2015-Aug-28 12:33N 46°50' W 124°46'7 7.0
2015-Aug-28 11:33N 46°57' W 124°48'9 7.3
2015-Aug-28 10:20N 47°05' W 124°51'54 7.9
2015-Aug-28 03:33N 47°58' W 125°06'3 2.5
2015-Aug-28 02:33N 48°00' W 125°07'2 2.0
2015-Aug-28 01:33N 48°02' W 125°08'0 0.3
2015-Aug-28 00:33N 48°02' W 125°08'2 1.7
2015-Aug-27 23:33N 48°01' W 125°08'2 1.7
2015-Aug-27 22:33N 47°59' W 125°09'6 5.7
2015-Aug-27 21:33N 47°54' W 125°06'8 8.4
2015-Aug-27 20:33N 47°46' W 125°02'9 8.5
2015-Aug-27 19:32N 47°38' W 124°56'9 8.6
2015-Aug-27 18:33N 47°30' W 124°52'8 8.1
2015-Aug-27 17:33N 47°23' W 124°47'1 0.9
2015-Aug-27 16:33N 47°22' W 124°46'2 1.7
2015-Aug-27 15:33N 47°24' W 124°47'1 1.3
2015-Aug-27 14:34N 47°25' W 124°47'6 5.8
2015-Aug-27 13:33N 47°20' W 124°42'7 6.9
2015-Aug-27 12:33N 47°15' W 124°36'7 7.1
2015-Aug-27 11:33N 47°09' W 124°29'7 7.3
2015-Aug-27 10:33N 47°04' W 124°22'8 7.3
2015-Aug-27 09:28N 46°58' W 124°15'6 2.2
2015-Aug-27 06:33N 46°54' W 124°06'0 0.0
2015-Aug-27 05:19N 46°54' W 124°06'0 0.0
2015-Aug-27 04:12N 46°54' W 124°06'0 0.0
2015-Aug-27 03:33N 46°54' W 124°06'0 0.0
2015-Aug-27 02:33N 46°54' W 124°06'0 0.0
2015-Aug-27 01:14N 46°54' W 124°06'0 0.2
2015-Aug-27 00:04N 46°55' W 124°07'0 0.0
2015-Aug-26 18:27N 46°55' W 124°07'0 0.0
2015-Aug-26 17:27N 46°55' W 124°07'0 0.0
2015-Aug-26 16:33N 46°55' W 124°07'0 0.0
2015-Aug-26 14:19N 46°55' W 124°07'0 0.0
2015-Aug-26 13:33N 46°55' W 124°07'0 0.0
2015-Aug-26 12:33N 46°55' W 124°07'0 0.0
2015-Aug-26 11:33N 46°55' W 124°07'0 0.0
2015-Aug-26 10:26N 46°55' W 124°07'0 0.0
2015-Aug-26 09:33N 46°55' W 124°07'0 0.3
2015-Aug-26 08:27N 46°55' W 124°07'5 6.1
2015-Aug-26 07:33N 46°56' W 124°14'8 8.5
2015-Aug-26 06:33N 47°03' W 124°22'9 8.6
2015-Aug-26 05:33N 47°10' W 124°28'9 8.8
2015-Aug-26 04:33N 47°17' W 124°36'9 9.0
2015-Aug-26 03:33N 47°24' W 124°44'9 9.2
2015-Aug-26 02:33N 47°32' W 124°52'9 8.6
2015-Aug-26 01:33N 47°39' W 124°59'5 1.6
2015-Aug-25 22:32N 47°35' W 124°57'1 1.4
2015-Aug-25 21:33N 47°35' W 124°58'3 1.9
2015-Aug-25 20:11N 47°38' W 125°00'5 3.3
2015-Aug-25 18:33N 47°43' W 125°01'4 1.3
2015-Aug-25 15:17N 47°39' W 124°58'2 1.9
2015-Aug-25 14:17N 47°41' W 124°59'1 1.0
2015-Aug-25 13:29N 47°41' W 124°58'3 1.3
2015-Aug-25 11:15N 47°40' W 124°54'0 0.3
2015-Aug-25 10:33N 47°40' W 124°54'0 0.4
2015-Aug-25 09:28N 47°40' W 124°54'0 0.5
2015-Aug-25 08:29N 47°41' W 124°54'0 0.5
2015-Aug-25 07:33N 47°41' W 124°55'0 0.4
2015-Aug-25 06:32N 47°41' W 124°55'1 0.5
2015-Aug-25 05:33N 47°41' W 124°56'1 0.6
2015-Aug-25 04:33N 47°41' W 124°57'1 1.5
2015-Aug-25 03:32N 47°40' W 124°59'5 1.8
2015-Aug-25 00:31N 47°46' W 125°01'1 0.1
2015-Aug-24 10:28N 47°46' W 125°00'1 0.7
2015-Aug-24 09:26N 47°47' W 125°01'1 0.6
2015-Aug-24 08:05N 47°47' W 125°02'1 0.6
2015-Aug-24 06:13N 47°48' W 125°03'6 1.7
2015-Aug-24 02:30N 47°43' W 124°58'2 1.8
2015-Aug-24 01:32N 47°44' W 124°59'1 0.7
2015-Aug-24 00:33N 47°45' W 124°59'2 1.9
2015-Aug-23 23:33N 47°47' W 125°00'  

Dump ship's entire track history